Time;durP1;ratioP1;P1;durP2;ratioP2;P2;SDS_P1;SDS_P2;PMS_P1;PMS_P2;Temp;Humidity;BMP_temperature;BMP_pressure;BME280_temperature;BME280_humidity;BME280_pressure;Samples;Min_cycle;Max_cycle;Signal;HPM_P1;HPM_P2
2022/02/21 00:01:49;;;;;;;;;;;6.70;99.90;;;;;;5051629;28;20003;-70
2022/02/21 00:04:15;;;;;;;;;;;6.80;99.90;;;;;;5052923;28;19930;-69
2022/02/21 00:06:43;;;;;;;;;;;6.80;99.90;;;;;;5051860;28;19999;-69
2022/02/21 00:09:09;;;;;;;;;;;6.70;99.90;;;;;;5051922;28;20266;-69
2022/02/21 00:11:34;;;;;;;;;;;6.70;99.90;;;;;;5051475;28;19947;-68
2022/02/21 00:14:00;;;;;;;;;;;6.80;99.90;;;;;;5052702;28;19909;-69
2022/02/21 00:16:25;;;;;;;;;;;6.90;99.90;;;;;;5051756;28;19920;-69
2022/02/21 00:18:51;;;;;;;;;;;6.90;99.90;;;;;;5051672;28;19905;-68
2022/02/21 00:21:16;;;;;;;;;;;6.90;99.90;;;;;;5051489;28;20075;-69
2022/02/21 00:23:42;;;;;;;;;;;6.90;99.90;;;;;;5051394;28;20559;-69
2022/02/21 00:26:07;;;;;;;;;;;6.90;99.90;;;;;;5052433;28;19909;-68
2022/02/21 00:28:32;;;;;;;;;;;6.90;99.90;;;;;;5051543;28;19909;-69
2022/02/21 00:30:58;;;;;;;;;;;6.90;99.90;;;;;;5051370;28;19916;-69
2022/02/21 00:33:23;;;;;;;;;;;6.90;99.90;;;;;;5051404;28;19916;-69
2022/02/21 00:35:49;;;;;;;;;;;6.90;99.90;;;;;;5052288;28;19909;-70
2022/02/21 00:38:14;;;;;;;;;;;7.00;99.90;;;;;;5057978;28;20577;-68
2022/02/21 00:40:39;;;;;;;;;;;7.00;99.90;;;;;;5071557;28;19939;-68
2022/02/21 00:43:05;;;;;;;;;;;6.90;99.90;;;;;;5070695;28;19904;-69
2022/02/21 00:45:30;;;;;;;;;;;6.90;99.90;;;;;;5071602;28;19904;-69
2022/02/21 00:47:56;;;;;;;;;;;7.00;99.90;;;;;;5070305;28;19916;-69
2022/02/21 00:50:21;;;;;;;;;;;7.10;99.90;;;;;;5070684;28;19904;-68
2022/02/21 00:52:47;;;;;;;;;;;7.10;99.90;;;;;;5070919;28;20092;-69
2022/02/21 00:55:13;;;;;;;;;;;7.10;99.90;;;;;;5071487;28;19904;-70
2022/02/21 00:57:39;;;;;;;;;;;7.10;99.90;;;;;;5074567;28;20296;-70
2022/02/21 01:00:05;;;;;;;;;;;6.90;99.90;;;;;;5065438;28;19915;-69
2022/02/21 01:02:32;;;;;;;;;;;7.00;99.90;;;;;;5054600;28;19911;-69
2022/02/21 01:04:58;;;;;;;;;;;7.00;99.90;;;;;;5054989;28;19987;-68
2022/02/21 01:07:24;;;;;;;;;;;6.60;99.90;;;;;;5054683;28;20412;-69
2022/02/21 01:09:49;;;;;;;;;;;6.30;99.90;;;;;;5055678;28;19931;-68
2022/02/21 01:12:14;;;;;;;;;;;6.30;99.90;;;;;;5054670;28;19904;-69
2022/02/21 01:14:40;;;;;;;;;;;6.40;99.90;;;;;;5054828;28;20331;-69
2022/02/21 01:17:05;;;;;;;;;;;6.40;99.90;;;;;;5054701;28;20377;-69
2022/02/21 01:19:31;;;;;;;;;;;6.40;99.90;;;;;;5054741;28;19905;-69
2022/02/21 01:21:56;;;;;;;;;;;6.40;99.90;;;;;;5055257;28;19999;-70
2022/02/21 01:24:22;;;;;;;;;;;6.40;99.90;;;;;;5054467;28;19905;-69
2022/02/21 01:26:47;;;;;;;;;;;6.50;99.90;;;;;;5054672;28;19950;-69
2022/02/21 01:29:14;;;;;;;;;;;6.50;99.90;;;;;;5054591;28;20373;-68
2022/02/21 01:31:39;;;;;;;4.78;1.75;;;6.50;99.90;;;;;;5048980;28;25077;-68
2022/02/21 01:34:05;;;;;;;;;;;6.50;99.90;;;;;;4979558;28;25069;-70
2022/02/21 01:36:30;;;;;;;;;;;6.60;99.90;;;;;;5054039;28;20038;-69
2022/02/21 01:38:56;;;;;;;;;;;6.50;99.90;;;;;;5054877;28;20007;-69
2022/02/21 01:41:21;;;;;;;;;;;6.60;99.90;;;;;;5053548;28;19972;-68
2022/02/21 01:43:47;;;;;;;;;;;6.60;99.90;;;;;;5051012;28;20538;-69
2022/02/21 01:46:12;;;;;;;;;;;6.70;99.90;;;;;;5055194;28;19959;-69
2022/02/21 01:48:38;;;;;;;;;;;6.60;99.90;;;;;;5053106;28;20051;-69
2022/02/21 01:51:03;;;;;;;;;;;6.60;99.90;;;;;;5052881;28;20452;-69
2022/02/21 01:53:29;;;;;;;;;;;6.60;99.90;;;;;;5042047;28;20293;-69
2022/02/21 01:55:54;;;;;;;;;;;6.70;99.90;;;;;;5053458;28;20355;-70
2022/02/21 01:58:20;;;;;;;;;;;6.60;99.90;;;;;;5053668;28;20342;-69
2022/02/21 02:00:45;;;;;;;;;;;6.60;99.90;;;;;;5053890;28;20404;-70
2022/02/21 02:03:11;;;;;;;;;;;6.60;99.90;;;;;;5054704;28;20431;-69
2022/02/21 02:05:36;;;;;;;;;;;6.50;99.90;;;;;;5053758;28;19940;-69
2022/02/21 02:08:02;;;;;;;;;;;6.60;99.90;;;;;;5052991;28;24056;-69
2022/02/21 02:10:28;;;;;;;;;;;6.50;99.90;;;;;;5053559;28;19983;-70
2022/02/21 02:12:53;;;;;;;;;;;6.40;99.90;;;;;;5049361;28;20236;-70
2022/02/21 02:15:19;;;;;;;;;;;6.50;99.90;;;;;;5053846;28;20107;-69
2022/02/21 02:17:44;;;;;;;;;;;6.40;99.90;;;;;;5051316;28;19955;-70
2022/02/21 02:20:11;;;;;;;;;;;6.50;99.90;;;;;;5051123;28;20782;-70
2022/02/21 02:22:37;;;;;;;;;;;6.30;99.90;;;;;;5052887;28;20627;-69
2022/02/21 02:25:03;;;;;;;;;;;6.20;99.90;;;;;;5054903;28;19909;-69
2022/02/21 02:27:28;;;;;;;;;;;6.20;99.90;;;;;;5053478;28;19971;-69
2022/02/21 02:29:55;;;;;;;;;;;6.30;99.90;;;;;;5053226;28;20329;-70
2022/02/21 02:32:21;;;;;;;;;;;6.30;99.90;;;;;;5052830;28;20001;-69
2022/02/21 02:34:47;;;;;;;;;;;6.30;99.90;;;;;;5054574;28;19940;-70
2022/02/21 02:37:13;;;;;;;;;;;6.30;99.90;;;;;;5053151;28;20365;-69
2022/02/21 02:39:39;;;;;;;;;;;6.30;99.90;;;;;;5069711;28;19915;-69
2022/02/21 02:42:05;;;;;;;;;;;6.20;99.90;;;;;;5038213;28;20863;-70
2022/02/21 02:44:30;;;;;;;;;;;6.30;99.90;;;;;;5072202;28;20180;-69
2022/02/21 02:46:56;;;;;;;;;;;6.30;99.90;;;;;;5071520;28;25068;-69
2022/02/21 02:49:21;;;;;;;;;;;6.10;99.90;;;;;;5031835;28;20305;-68
2022/02/21 02:51:47;;;;;;;;;;;6.10;99.90;;;;;;5064131;28;20740;-69
2022/02/21 02:54:13;;;;;;;;;;;6.20;99.90;;;;;;5072684;28;19908;-70
2022/02/21 02:56:39;;;;;;;;;;;6.20;99.90;;;;;;5072639;28;19909;-69
2022/02/21 02:59:05;;;;;;;;;;;6.20;99.90;;;;;;5063890;28;20174;-69
2022/02/21 03:01:30;;;;;;;;;;;6.00;99.90;;;;;;4924760;28;31417;-69
2022/02/21 03:03:56;;;;;;;;;;;5.90;99.90;;;;;;5008701;28;25086;-69
2022/02/21 03:06:22;;;;;;;;;;;6.00;99.90;;;;;;4707105;28;114458;-69
2022/02/21 03:08:47;;;;;;;7.93;3.07;;;5.90;99.90;;;;;;5049701;28;32287;-69
2022/02/21 03:11:13;;;;;;;7.63;2.60;;;6.00;99.90;;;;;;5070328;28;20210;-69
2022/02/21 03:13:39;;;;;;;3.87;1.47;;;6.10;99.90;;;;;;5023288;28;20662;-69
2022/02/21 03:16:05;;;;;;;3.70;1.60;;;6.20;99.90;;;;;;5032411;28;20543;-69
2022/02/21 03:18:31;;;;;;;;;;;6.00;99.90;;;;;;4914470;28;21147;-68
2022/02/21 03:20:56;;;;;;;;;;;5.80;99.90;;;;;;4886831;28;25165;-70
2022/02/21 03:23:23;;;;;;;7.10;1.40;;;5.60;99.90;;;;;;4845594;28;25124;-69
2022/02/21 03:25:48;;;;;;;;;;;5.50;99.90;;;;;;4825092;28;58821;-69
2022/02/21 03:28:14;;;;;;;;;;;5.40;99.90;;;;;;4988503;28;20475;-69
2022/02/21 03:30:39;;;;;;;;;;;5.40;99.90;;;;;;4797862;28;25155;-69
2022/02/21 03:33:05;;;;;;;3.50;1.20;;;5.60;99.90;;;;;;4825727;28;32252;-68
2022/02/21 03:35:31;;;;;;;4.90;1.30;;;5.60;99.90;;;;;;4836702;28;25070;-69
2022/02/21 03:37:57;;;;;;;4.35;2.15;;;5.50;99.90;;;;;;4795249;28;20721;-69
2022/02/21 03:40:22;;;;;;;;;;;5.40;99.90;;;;;;4981186;28;28269;-69
2022/02/21 03:42:48;;;;;;;;;;;5.50;99.90;;;;;;4976897;28;25064;-69
2022/02/21 03:45:13;;;;;;;;;;;5.50;99.90;;;;;;4685051;28;31295;-69
2022/02/21 03:47:39;;;;;;;;;;;5.10;99.90;;;;;;4870859;28;20297;-69
2022/02/21 03:50:05;;;;;;;;;;;4.90;99.90;;;;;;4944583;28;20806;-70
2022/02/21 03:52:30;;;;;;;;;;;5.00;99.90;;;;;;4871698;28;42134;-70
2022/02/21 03:54:56;;;;;;;;;;;5.10;99.90;;;;;;5014030;28;20513;-69
2022/02/21 03:57:22;;;;;;;;;;;5.10;99.90;;;;;;4851878;28;22325;-69
2022/02/21 03:59:47;;;;;;;;;;;5.20;99.90;;;;;;4937310;28;20320;-70
2022/02/21 04:02:13;;;;;;;;;;;5.20;99.90;;;;;;4909942;28;25151;-69
2022/02/21 04:04:38;;;;;;;;;;;5.30;99.90;;;;;;4979840;28;20331;-69
2022/02/21 04:07:04;;;;;;;;;;;5.30;99.90;;;;;;5051179;28;19938;-68
2022/02/21 04:09:29;;;;;;;;;;;5.40;99.90;;;;;;5041669;28;20190;-69
2022/02/21 04:11:55;;;;;;;;;;;5.50;99.90;;;;;;4954124;28;23689;-69
2022/02/21 04:14:20;;;;;;;3.50;1.40;;;5.60;99.90;;;;;;5010196;28;61994;-69
2022/02/21 04:16:46;;;;;;;9.23;2.37;;;5.60;99.90;;;;;;5051067;28;20186;-70
2022/02/21 04:19:11;;;;;;;5.10;1.90;;;5.50;99.90;;;;;;5051275;28;20173;-69
2022/02/21 04:21:38;;;;;;;4.90;1.67;;;5.40;99.90;;;;;;5051850;28;20257;-67
2022/02/21 04:24:04;;;;;;;4.93;1.63;;;5.30;99.90;;;;;;5051382;28;20191;-69
2022/02/21 04:26:30;;;;;;;4.97;2.00;;;5.10;99.90;;;;;;5049983;28;20482;-70
2022/02/21 04:28:55;;;;;;;3.90;1.83;;;5.00;99.90;;;;;;5051144;28;20189;-69
2022/02/21 04:31:21;;;;;;;10.27;2.90;;;5.00;99.90;;;;;;5052899;28;20528;-69
2022/02/21 04:33:47;;;;;;;11.70;2.30;;;4.90;99.90;;;;;;5054753;28;20269;-70
2022/02/21 04:36:13;;;;;;;4.03;1.50;;;5.00;99.90;;;;;;5055301;28;20555;-69
2022/02/21 04:38:39;;;;;;;4.63;1.63;;;5.10;99.90;;;;;;5064912;28;20465;-70
2022/02/21 04:41:04;;;;;;;2.80;1.30;;;5.20;99.90;;;;;;5074842;28;20472;-69
2022/02/21 04:43:30;;;;;;;2.87;1.80;;;5.30;99.90;;;;;;5074416;28;20186;-70
2022/02/21 04:45:55;;;;;;;5.67;1.77;;;5.30;99.90;;;;;;5074014;28;20181;-68
2022/02/21 04:48:22;;;;;;;8.63;2.37;;;5.30;99.90;;;;;;5073086;28;20737;-69
2022/02/21 04:50:48;;;;;;;7.03;1.80;;;5.30;99.90;;;;;;5074752;28;20269;-69
2022/02/21 04:53:14;;;;;;;3.73;1.40;;;5.30;99.90;;;;;;5073156;28;20454;-69
2022/02/21 04:55:39;;;;;;;6.33;2.10;;;5.10;99.90;;;;;;5074790;28;20180;-70
2022/02/21 04:58:05;;;;;;;3.30;1.80;;;4.90;99.90;;;;;;5074243;28;20437;-69
2022/02/21 05:00:30;;;;;;;5.50;1.90;;;4.80;99.90;;;;;;5054880;28;20255;-69
2022/02/21 05:02:56;;;;;;;2.90;1.67;;;4.90;99.90;;;;;;5074360;28;20189;-69
2022/02/21 05:05:22;;;;;;;3.13;2.23;;;4.90;99.90;;;;;;5074669;28;20192;-69
2022/02/21 05:07:47;;;;;;;7.43;2.30;;;5.00;99.90;;;;;;5074377;28;20258;-69
2022/02/21 05:10:13;;;;;;;5.27;2.20;;;5.00;99.90;;;;;;5072492;28;20421;-69
2022/02/21 05:12:38;;;;;;;5.13;2.60;;;5.10;99.90;;;;;;5074121;28;20907;-69
2022/02/21 05:15:05;;;;;;;6.67;2.43;;;5.00;99.90;;;;;;5074524;28;20173;-69
2022/02/21 05:17:31;;;;;;;5.67;2.20;;;4.90;99.90;;;;;;5056193;28;20571;-69
2022/02/21 05:19:57;;;;;;;8.43;2.57;;;4.80;99.90;;;;;;5054959;28;20431;-69
2022/02/21 05:22:22;;;;;;;11.40;2.00;;;4.80;99.90;;;;;;5073589;28;20211;-69
2022/02/21 05:24:48;;;;;;;6.53;1.70;;;4.60;99.90;;;;;;5074212;28;20198;-70
2022/02/21 05:27:14;;;;;;;6.20;2.10;;;4.20;99.90;;;;;;5074079;28;20256;-70
2022/02/21 05:29:39;;;;;;;6.93;2.60;;;4.10;99.90;;;;;;5074195;28;20895;-70
2022/02/21 05:32:05;;;;;;;3.53;2.30;;;4.20;99.90;;;;;;5071903;28;20196;-70
2022/02/21 05:34:31;;;;;;;8.40;2.97;;;4.40;99.90;;;;;;5074082;28;20253;-69
2022/02/21 05:36:56;;;;;;;5.60;2.20;;;4.40;99.90;;;;;;5055936;28;20202;-70
2022/02/21 05:39:22;;;;;;;5.17;2.33;;;4.50;99.90;;;;;;5074199;28;20177;-69
2022/02/21 05:41:47;;;;;;;7.10;2.30;;;4.60;99.90;;;;;;5071515;28;20247;-70
2022/02/21 05:44:13;;;;;;;4.37;2.30;;;4.70;99.90;;;;;;5073694;28;20189;-69
2022/02/21 05:46:38;;;;;;;6.57;2.53;;;4.80;99.90;;;;;;5073906;28;20205;-70
2022/02/21 05:49:04;;;;;;;6.47;2.30;;;4.80;99.90;;;;;;5074090;28;20215;-70
2022/02/21 05:51:30;;;;;;;7.33;2.83;;;4.80;99.90;;;;;;5073869;28;20278;-71
2022/02/21 05:53:55;;;;;;;4.97;3.10;;;4.80;99.90;;;;;;5072005;28;20180;-71
2022/02/21 05:56:21;;;;;;;5.80;2.60;;;4.90;99.90;;;;;;5073821;28;20414;-70
2022/02/21 05:58:46;;;;;;;6.37;2.50;;;4.80;99.90;;;;;;5073847;28;20191;-71
2022/02/21 06:01:12;;;;;;;4.90;2.10;;;4.80;99.90;;;;;;5073274;28;20200;-70
2022/02/21 06:03:37;;;;;;;3.70;2.10;;;4.80;99.90;;;;;;5071716;28;20232;-70
2022/02/21 06:06:03;;;;;;;5.87;2.10;;;4.70;99.90;;;;;;5073421;28;20203;-70
2022/02/21 06:08:29;;;;;;;7.60;1.73;;;4.60;99.90;;;;;;5073324;28;20207;-70
2022/02/21 06:10:56;;;;;;;2.73;1.27;;;4.60;99.90;;;;;;5073285;28;20300;-70
2022/02/21 06:13:22;;;;;;;7.37;1.90;;;4.60;99.90;;;;;;5070924;28;20468;-70
2022/02/21 06:15:47;;;;;;;2.97;1.47;;;4.50;99.90;;;;;;5055288;28;20927;-70
2022/02/21 06:18:13;;;;;;;2.83;1.70;;;4.50;99.90;;;;;;5072994;28;20198;-70
2022/02/21 06:20:38;;;;;;;3.70;1.40;;;4.50;99.90;;;;;;5073146;28;20192;-70
2022/02/21 06:23:04;;;;;;;3.37;1.40;;;4.50;99.90;;;;;;5072964;28;20172;-69
2022/02/21 06:25:29;;;;;;;2.87;1.40;;;4.50;99.90;;;;;;5071030;28;20187;-70
2022/02/21 06:27:55;;;;;;;4.07;1.20;;;4.40;99.90;;;;;;5072504;28;20178;-68
2022/02/21 06:30:20;;;;;;;2.47;1.20;;;4.30;99.90;;;;;;5072711;28;20213;-69
2022/02/21 06:32:46;;;;;;;3.43;1.60;;;4.00;99.90;;;;;;5038495;28;20622;-69
2022/02/21 06:35:11;;;;;;;4.43;1.17;;;3.90;99.90;;;;;;5034361;28;20211;-69
2022/02/21 06:37:42;;;;;;;3.13;1.57;;;3.90;99.90;;;;;;5059955;28;20715;-69
2022/02/21 06:40:08;;;;;;;2.20;1.47;;;3.80;99.90;;;;;;5050834;28;20216;-67
2022/02/21 06:42:34;;;;;;;2.03;1.57;;;3.90;99.90;;;;;;5050597;28;20864;-70
2022/02/21 06:44:59;;;;;;;2.00;1.43;;;3.90;99.90;;;;;;5051448;28;20451;-71
2022/02/21 06:47:25;;;;;;;3.70;1.50;;;4.00;99.90;;;;;;5050449;28;20838;-69
2022/02/21 06:49:50;;;;;;;2.10;1.70;;;3.90;99.90;;;;;;5052349;28;20196;-70
2022/02/21 06:52:15;;;;;;;4.77;1.40;;;4.00;99.90;;;;;;5049123;28;20302;-70
2022/02/21 06:54:41;;;;;;;2.70;1.87;;;4.00;99.90;;;;;;5032107;28;20200;-70
2022/02/21 06:57:07;;;;;;;4.43;1.37;;;4.00;99.90;;;;;;5050792;28;20311;-69
2022/02/21 06:59:32;;;;;;;1.50;1.40;;;4.20;99.90;;;;;;5051648;28;20217;-69
2022/02/21 07:01:58;;;;;;;3.10;1.40;;;4.40;99.90;;;;;;5049168;28;20224;-71
2022/02/21 07:04:24;;;;;;;2.60;2.10;;;4.50;99.90;;;;;;5050720;28;20287;-71
2022/02/21 07:06:50;;;;;;;5.80;2.00;;;4.50;99.90;;;;;;5051640;28;20896;-71
2022/02/21 07:09:15;;;;;;;5.77;1.53;;;4.40;99.90;;;;;;5051458;28;20502;-70
2022/02/21 07:11:41;;;;;;;7.47;2.30;;;4.30;99.90;;;;;;5070612;28;20210;-70
2022/02/21 07:14:06;;;;;;;3.70;1.70;;;4.10;99.90;;;;;;5071416;28;20175;-70
2022/02/21 07:16:32;;;;;;;4.33;2.50;;;4.10;99.90;;;;;;5071490;28;20241;-70
2022/02/21 07:18:58;;;;;;;9.20;2.80;;;4.10;99.90;;;;;;5071411;28;20326;-70
2022/02/21 07:21:23;;;;;;;3.60;2.13;;;4.20;99.90;;;;;;5069901;28;20205;-71
2022/02/21 07:23:49;;;;;;;6.27;2.83;;;4.20;99.90;;;;;;5071055;28;20771;-70
2022/02/21 07:26:14;;;;;;;6.00;2.17;;;4.10;99.90;;;;;;5071359;28;20179;-71
2022/02/21 07:28:40;;;;;;;6.47;3.10;;;4.10;99.90;;;;;;5050832;28;20255;-71
2022/02/21 07:31:09;;;;;;;8.83;2.80;;;4.20;99.90;;;;;;5034365;28;20221;-70
2022/02/21 07:33:35;;;;;;;5.23;2.50;;;4.30;99.90;;;;;;5051280;28;20177;-71
2022/02/21 07:36:00;;;;;;;8.40;3.20;;;4.30;99.90;;;;;;5033614;28;20478;-71
2022/02/21 07:38:25;;;;;;;8.53;2.63;;;4.40;99.90;;;;;;5050912;28;20233;-71
2022/02/21 07:40:51;;;;;;;7.83;3.47;;;4.40;99.90;;;;;;5051358;28;20557;-70
2022/02/21 07:43:17;;;;;;;7.77;3.23;;;4.50;99.90;;;;;;5052735;28;20178;-71
2022/02/21 07:45:42;;;;;;;8.30;2.70;;;4.50;99.90;;;;;;5050730;28;20589;-71
2022/02/21 07:48:08;;;;;;;7.60;2.90;;;4.60;99.90;;;;;;5050867;28;20277;-70
2022/02/21 07:50:35;;;;;;;12.93;3.37;;;4.60;99.90;;;;;;5051123;28;20712;-71
2022/02/21 07:53:02;;;;;;;15.27;3.27;;;4.60;99.90;;;;;;5051521;28;20207;-71
2022/02/21 07:55:28;;;;;;;8.57;3.00;;;4.70;99.90;;;;;;5050910;28;20919;-70
2022/02/21 07:57:54;;;;;;;8.00;3.00;;;4.70;99.90;;;;;;5050877;28;20517;-70
2022/02/21 08:00:20;;;;;;;9.70;2.50;;;4.70;99.90;;;;;;5051123;28;20439;-71
2022/02/21 08:02:46;;;;;;;8.43;3.37;;;4.80;99.90;;;;;;5052357;28;20179;-71
2022/02/21 08:05:12;;;;;;;8.67;2.90;;;4.90;99.90;;;;;;5071187;28;20409;-71
2022/02/21 08:07:38;;;;;;;11.63;3.33;;;5.00;99.90;;;;;;5052635;28;20788;-72
2022/02/21 08:10:05;;;;;;;6.03;3.00;;;5.00;99.90;;;;;;5070770;28;20851;-71
2022/02/21 08:12:31;;;;;;;6.53;2.37;;;5.00;99.90;;;;;;5070232;28;20463;-71
2022/02/21 08:14:57;;;;;;;7.40;2.77;;;5.00;99.90;;;;;;5069161;28;20790;-70
2022/02/21 08:17:23;;;;;;;6.73;2.60;;;5.00;99.90;;;;;;5052771;28;20458;-68
2022/02/21 08:19:49;;;;;;;7.80;2.83;;;5.10;99.90;;;;;;5070858;28;20955;-71
2022/02/21 08:22:14;;;;;;;11.50;3.13;;;5.10;99.90;;;;;;5070732;28;20413;-71
2022/02/21 08:24:40;;;;;;;6.03;2.57;;;5.10;99.90;;;;;;5069368;28;20229;-71
2022/02/21 08:27:05;;;;;;;15.77;3.17;;;5.20;99.90;;;;;;5070591;28;20178;-71
2022/02/21 08:29:32;;;;;;;6.63;3.47;;;5.30;99.90;;;;;;5070875;28;20227;-70
2022/02/21 08:31:59;;;;;;;3.60;2.30;;;5.30;99.90;;;;;;5070421;28;20177;-71
2022/02/21 08:34:25;;;;;;;8.30;2.70;;;5.40;99.90;;;;;;5069970;28;20417;-71
2022/02/21 08:36:50;;;;;;;10.13;3.03;;;5.40;99.90;;;;;;5069751;28;20417;-71
2022/02/21 08:39:16;;;;;;;7.67;2.67;;;5.50;99.90;;;;;;5054992;28;20946;-71
2022/02/21 08:41:42;;;;;;;10.50;3.00;;;5.50;99.90;;;;;;5051377;28;20190;-71
2022/02/21 08:44:08;;;;;;;6.90;2.57;;;5.50;99.90;;;;;;5050178;28;20219;-71
2022/02/21 08:46:33;;;;;;;6.80;1.80;;;5.50;99.90;;;;;;5050435;28;20178;-71
2022/02/21 08:48:59;;;;;;;3.07;2.30;;;5.50;99.90;;;;;;5033699;28;20190;-71
2022/02/21 08:51:25;;;;;;;7.07;2.23;;;5.50;99.90;;;;;;5050465;28;20194;-71
2022/02/21 08:53:51;;;;;;;3.60;2.37;;;5.50;99.90;;;;;;5032470;28;20692;-71
2022/02/21 08:56:16;;;;;;;4.93;2.23;;;5.50;99.90;;;;;;5032902;28;20420;-71
2022/02/21 08:58:42;;;;;;;8.07;2.53;;;5.60;99.90;;;;;;5051490;28;20204;-71
2022/02/21 09:01:07;;;;;;;9.37;2.40;;;5.60;99.90;;;;;;5050336;28;20206;-71
2022/02/21 09:03:33;;;;;;;4.63;2.17;;;5.50;99.90;;;;;;5050159;28;20185;-71
2022/02/21 09:05:58;;;;;;;8.27;2.80;;;5.50;99.90;;;;;;5050442;28;20206;-71
2022/02/21 09:08:25;;;;;;;8.10;2.53;;;5.60;99.90;;;;;;5050294;28;20309;-71
2022/02/21 09:10:51;;;;;;;4.40;1.90;;;5.60;99.90;;;;;;5062709;28;20219;-70
2022/02/21 09:13:17;;;;;;;2.50;1.53;;;5.70;99.90;;;;;;5069317;28;20802;-71
2022/02/21 09:15:42;;;;;;;4.93;2.10;;;5.70;99.90;;;;;;5051897;28;20182;-71
2022/02/21 09:18:09;;;;;;;4.50;1.93;;;5.80;99.90;;;;;;5072497;28;20209;-70
2022/02/21 09:20:36;;;;;;;7.20;2.00;;;5.90;99.90;;;;;;5072057;28;20701;-71
2022/02/21 09:23:01;;;;;;;3.73;1.90;;;6.00;99.90;;;;;;5073611;28;20439;-70
2022/02/21 09:25:27;;;;;;;7.47;2.00;;;6.00;99.90;;;;;;5073424;28;20449;-71
2022/02/21 09:27:53;;;;;;;5.97;2.00;;;6.00;99.90;;;;;;5073962;28;20186;-71
2022/02/21 09:30:19;;;;;;;6.37;1.90;;;6.10;99.90;;;;;;5073182;28;20686;-70
2022/02/21 09:32:45;;;;;;;5.77;2.17;;;6.00;99.90;;;;;;5071556;28;20523;-68
2022/02/21 09:35:10;;;;;;;6.10;2.70;;;6.00;99.90;;;;;;5073255;28;20178;-71
2022/02/21 09:37:38;;;;;;;5.63;1.60;;;6.00;99.90;;;;;;5073412;28;20288;-69
2022/02/21 09:40:08;;;;;;;3.60;1.70;;;6.00;99.90;;;;;;5055241;28;20525;-69
2022/02/21 09:42:33;;;;;;;4.77;1.70;;;6.20;99.90;;;;;;5070781;28;20449;-69
2022/02/21 09:45:00;;;;;;;3.70;1.90;;;6.20;99.90;;;;;;5073208;28;20416;-70
2022/02/21 09:47:27;;;;;;;4.77;1.63;;;6.30;99.90;;;;;;5073425;28;20182;-69
2022/02/21 09:49:54;;;;;;;3.63;1.70;;;6.30;99.90;;;;;;5072918;28;20428;-70
2022/02/21 09:52:19;;;;;;;9.60;2.10;;;6.30;99.90;;;;;;5071187;28;20424;-68
2022/02/21 09:54:45;;;;;;;7.80;2.00;;;6.30;99.90;;;;;;5072997;28;20406;-69
2022/02/21 09:57:14;;;;;;;6.23;2.20;;;6.30;99.90;;;;;;5072940;28;20674;-70
2022/02/21 09:59:39;;;;;;;4.17;1.70;;;6.30;99.90;;;;;;5073069;28;20173;-69
2022/02/21 10:02:05;;;;;;;6.67;2.20;;;6.30;99.90;;;;;;5058486;28;20439;-69
2022/02/21 10:04:31;;;;;;;6.63;2.50;;;6.30;99.90;;;;;;5036291;28;20166;-69
2022/02/21 10:06:57;;;;;;;6.20;2.07;;;6.30;99.90;;;;;;5052918;28;20413;-70
2022/02/21 10:09:26;;;;;;;6.37;2.53;;;6.30;99.90;;;;;;5052463;28;20248;-69
2022/02/21 10:11:55;;;;;;;4.40;1.90;;;6.30;99.90;;;;;;5048185;28;20421;-69
2022/02/21 10:14:22;;;;;;;5.67;2.20;;;6.30;99.90;;;;;;5053144;28;20424;-70
2022/02/21 10:16:53;;;;;;;6.53;2.10;;;6.30;99.90;;;;;;5052404;28;20409;-69
2022/02/21 10:19:30;;;;;;;6.23;1.70;;;6.30;99.90;;;;;;5052498;28;20500;-70
2022/02/21 10:22:12;;;;;;;4.23;2.00;;;6.30;99.90;;;;;;5052076;28;20798;-71
2022/02/21 10:24:49;;;;;;;9.00;4.10;;;6.30;99.90;;;;;;5053112;28;20458;-71
2022/02/21 10:27:17;;;;;;;10.73;2.70;;;6.30;99.90;;;;;;5052513;28;20431;-71
2022/02/21 10:29:48;;;;;;;5.00;1.80;;;6.30;99.90;;;;;;5052401;28;20417;-71
2022/02/21 10:32:16;;;;;;;8.00;2.33;;;6.30;99.90;;;;;;5051472;28;20862;-71
2022/02/21 10:34:45;;;;;;;6.70;2.17;;;6.30;99.90;;;;;;5053712;28;20503;-71
2022/02/21 10:37:13;;;;;;;6.20;2.50;;;6.30;99.90;;;;;;5035135;28;20983;-70
2022/02/21 10:39:39;;;;;;;7.43;2.10;;;6.30;99.90;;;;;;5054300;28;20425;-70
2022/02/21 10:42:08;;;;;;;7.73;2.30;;;6.40;99.90;;;;;;5052091;28;21015;-71
2022/02/21 10:44:39;;;;;;;9.90;3.93;;;6.40;99.90;;;;;;5052553;28;20308;-71
2022/02/21 10:47:08;;;;;;;9.83;3.20;;;6.30;99.90;;;;;;5052148;28;20426;-71
2022/02/21 10:49:38;;;;;;;6.00;2.30;;;6.30;99.90;;;;;;5053072;28;20421;-71
2022/02/21 10:52:05;;;;;;;8.10;2.77;;;6.30;99.90;;;;;;5051729;28;20405;-71
2022/02/21 10:54:33;;;;;;;12.73;5.67;;;6.30;99.90;;;;;;5051822;28;20557;-71
2022/02/21 10:56:59;;;;;;;5.67;2.40;;;6.30;99.90;;;;;;5051626;28;20416;-71
2022/02/21 10:59:30;;;;;;;3.93;1.90;;;6.20;99.90;;;;;;5052834;28;20420;-71
2022/02/21 11:01:56;;;;;;;5.77;2.70;;;6.10;99.90;;;;;;5051400;28;20500;-71
2022/02/21 11:04:24;;;;;;;4.70;2.07;;;6.00;99.90;;;;;;5051782;28;20496;-71
2022/02/21 11:06:54;;;;;;;19.73;9.20;;;5.90;99.90;;;;;;5051128;28;20451;-70
2022/02/21 11:09:20;;;;;;;5.20;2.73;;;5.90;99.90;;;;;;5052276;28;20424;-70
2022/02/21 11:11:48;;;;;;;9.60;2.57;;;5.90;99.90;;;;;;5051957;28;20452;-71
2022/02/21 11:14:19;;;;;;;5.77;2.40;;;5.80;99.90;;;;;;5050975;28;20413;-71
2022/02/21 11:16:48;;;;;;;7.50;2.83;;;5.70;99.90;;;;;;5051603;28;20428;-71
2022/02/21 11:19:17;;;;;;;7.23;2.50;;;5.70;99.90;;;;;;5051537;28;20451;-71
2022/02/21 11:21:45;;;;;;;5.30;2.10;;;5.80;99.90;;;;;;5064559;28;20524;-71
2022/02/21 11:24:13;;;;;;;11.50;3.00;;;5.70;99.90;;;;;;5071721;28;20400;-71
2022/02/21 11:27:21;;;;;;;6.53;2.50;;;5.70;99.90;;;;;;5071391;28;20553;-70
2022/02/21 11:30:05;;;;;;;7.40;2.90;;;5.70;99.90;;;;;;5071006;28;20853;-70
2022/02/21 11:32:31;;;;;;;3.17;2.47;;;5.70;99.90;;;;;;5069726;28;20428;-70
2022/02/21 11:35:17;;;;;;;6.43;3.33;;;5.60;99.90;;;;;;5071044;28;20411;-69
2022/02/21 11:37:44;;;;;;;4.67;2.60;;;5.60;99.90;;;;;;5048679;28;20242;-71
2022/02/21 11:40:11;;;;;;;6.57;2.63;;;5.60;99.90;;;;;;5029170;28;20488;-71
2022/02/21 11:42:38;;;;;;;5.80;2.40;;;5.60;99.90;;;;;;5045412;28;20440;-71
2022/02/21 11:45:20;;;;;;;9.03;2.70;;;5.60;99.90;;;;;;5053506;28;20919;-70
2022/02/21 11:47:46;;;;;;;8.07;2.70;;;5.60;99.90;;;;;;5051881;28;20440;-71
2022/02/21 11:50:13;;;;;;;5.70;2.40;;;5.60;99.90;;;;;;5063065;28;20804;-71
2022/02/21 11:52:41;;;;;;;7.90;3.30;;;5.60;99.90;;;;;;5068526;28;20445;-71
2022/02/21 11:55:29;;;;;;;7.20;3.13;;;5.60;99.90;;;;;;5070806;28;20443;-71
2022/02/21 11:58:14;;;;;;;6.80;2.73;;;5.60;99.90;;;;;;5071084;28;20466;-71
2022/02/21 12:00:45;;;;;;;6.97;2.30;;;5.60;99.90;;;;;;5048022;28;20850;-71
2022/02/21 12:03:22;;;;;;;6.63;2.67;;;5.60;99.90;;;;;;5051521;28;20422;-71
2022/02/21 12:06:09;;;;;;;8.23;3.47;;;5.60;99.90;;;;;;5051395;28;20416;-71
2022/02/21 12:08:41;;;;;;;9.47;3.50;;;5.60;99.90;;;;;;5051482;28;20430;-71
2022/02/21 12:11:07;;;;;;;5.47;2.40;;;5.60;99.90;;;;;;5050778;28;20809;-73
2022/02/21 12:13:35;;;;;;;6.53;2.60;;;5.60;99.90;;;;;;5051800;28;20421;-70
2022/02/21 12:16:08;;;;;;;5.37;2.90;;;5.60;99.90;;;;;;5050523;28;20733;-71
2022/02/21 12:18:38;;;;;;;4.47;1.93;;;5.60;99.90;;;;;;5033141;28;20460;-70
2022/02/21 12:21:10;;;;;;;4.87;3.27;;;5.60;99.90;;;;;;5050703;28;20572;-71
2022/02/21 12:23:58;;;;;;;4.93;2.33;;;5.60;99.90;;;;;;5050523;28;20413;-71
2022/02/21 12:26:27;;;;;;;4.67;2.70;;;5.60;99.90;;;;;;5017703;28;20431;-71
2022/02/21 12:29:14;;;;;;;5.37;2.80;;;5.60;99.90;;;;;;5013583;28;20441;-69
2022/02/21 12:31:56;;;;;;;5.67;2.50;;;5.60;99.90;;;;;;5030950;28;20502;-70
2022/02/21 12:34:32;;;;;;;3.30;2.40;;;5.60;99.90;;;;;;5031341;28;20482;-71
2022/02/21 12:37:01;;;;;;;8.63;3.20;;;5.60;99.90;;;;;;5069856;28;20447;-70
2022/02/21 12:39:30;;;;;;;5.57;2.70;;;5.60;99.90;;;;;;5055368;28;20789;-70
2022/02/21 12:41:56;;;;;;;4.70;2.70;;;5.60;99.90;;;;;;5057766;28;20934;-70
2022/02/21 12:44:22;;;;;;;7.20;3.03;;;5.60;99.90;;;;;;5050545;28;20413;-69
2022/02/21 12:47:05;;;;;;;6.50;3.77;;;5.60;99.90;;;;;;5049932;28;20171;-69
2022/02/21 12:49:33;;;;;;;6.17;2.83;;;5.60;99.90;;;;;;5054740;28;20457;-69
2022/02/21 12:52:08;;;;;;;6.80;3.10;;;5.60;99.90;;;;;;5050733;28;21016;-69
2022/02/21 12:54:48;;;;;;;8.80;3.20;;;5.60;99.90;;;;;;5054261;28;20451;-69
2022/02/21 12:57:15;;;;;;;7.93;2.80;;;5.60;99.90;;;;;;5053639;28;20498;-69
2022/02/21 12:59:40;;;;;;;6.60;3.10;;;5.60;99.90;;;;;;5055404;28;20888;-69
2022/02/21 13:02:08;;;;;;;9.83;2.90;;;5.60;99.90;;;;;;5053726;28;20417;-70
2022/02/21 13:04:35;;;;;;;10.93;4.03;;;5.60;99.90;;;;;;5073349;28;20198;-68
2022/02/21 13:07:02;;;;;;;8.47;3.43;;;5.70;99.90;;;;;;5073505;28;20502;-71
2022/02/21 13:09:29;;;;;;;7.40;2.53;;;5.70;99.90;;;;;;5074040;28;20401;-69
2022/02/21 13:11:55;;;;;;;4.87;2.60;;;5.70;99.90;;;;;;5071652;28;20527;-69
2022/02/21 13:14:26;;;;;;;6.10;2.80;;;5.70;99.90;;;;;;5056184;28;20413;-72
2022/02/21 13:16:53;;;;;;;5.07;2.80;;;5.80;99.90;;;;;;5073439;28;20401;-68
2022/02/21 13:19:26;;;;;;;6.10;2.57;;;5.80;99.90;;;;;;5073672;28;20440;-70
2022/02/21 13:21:53;;;;;;;5.87;3.00;;;5.80;99.90;;;;;;5071562;28;20541;-70